sensor_id;sensor_type;location;lat;lon;timestamp;temperature;humidity
36444;DHT22;24692;45.642;13.806;2023-07-24T00:01:19;24.00;99.90
36444;DHT22;24692;45.642;13.806;2023-07-24T00:03:45;24.10;99.90
36444;DHT22;24692;45.642;13.806;2023-07-24T00:06:11;24.10;99.90
36444;DHT22;24692;45.642;13.806;2023-07-24T00:08:37;24.00;99.90
36444;DHT22;24692;45.642;13.806;2023-07-24T00:11:03;24.00;99.90
36444;DHT22;24692;45.642;13.806;2023-07-24T00:13:31;24.00;99.90
36444;DHT22;24692;45.642;13.806;2023-07-24T00:15:57;23.90;99.90
36444;DHT22;24692;45.642;13.806;2023-07-24T00:18:23;23.80;99.90
36444;DHT22;24692;45.642;13.806;2023-07-24T00:20:48;23.80;99.90
36444;DHT22;24692;45.642;13.806;2023-07-24T00:23:14;23.80;99.90
36444;DHT22;24692;45.642;13.806;2023-07-24T00:25:40;23.70;99.90
36444;DHT22;24692;45.642;13.806;2023-07-24T00:28:05;23.70;99.90
36444;DHT22;24692;45.642;13.806;2023-07-24T00:30:31;23.70;99.90
36444;DHT22;24692;45.642;13.806;2023-07-24T00:32:57;23.70;99.90
36444;DHT22;24692;45.642;13.806;2023-07-24T00:35:22;23.80;99.90
36444;DHT22;24692;45.642;13.806;2023-07-24T00:37:48;23.70;99.90
36444;DHT22;24692;45.642;13.806;2023-07-24T00:40:14;23.70;99.90
36444;DHT22;24692;45.642;13.806;2023-07-24T00:42:39;23.60;99.90
36444;DHT22;24692;45.642;13.806;2023-07-24T00:45:05;23.60;99.90
36444;DHT22;24692;45.642;13.806;2023-07-24T00:47:32;23.60;99.90
36444;DHT22;24692;45.642;13.806;2023-07-24T00:49:58;23.50;99.90
36444;DHT22;24692;45.642;13.806;2023-07-24T00:52:24;23.60;99.90
36444;DHT22;24692;45.642;13.806;2023-07-24T00:54:50;23.50;99.90
36444;DHT22;24692;45.642;13.806;2023-07-24T00:57:16;23.50;99.90
36444;DHT22;24692;45.642;13.806;2023-07-24T00:59:42;23.50;99.90
36444;DHT22;24692;45.642;13.806;2023-07-24T01:02:08;23.50;99.90
36444;DHT22;24692;45.642;13.806;2023-07-24T01:04:34;23.50;99.90
36444;DHT22;24692;45.642;13.806;2023-07-24T01:07:00;23.50;99.90
36444;DHT22;24692;45.642;13.806;2023-07-24T01:09:26;23.50;99.90
36444;DHT22;24692;45.642;13.806;2023-07-24T01:12:02;23.50;99.90
36444;DHT22;24692;45.642;13.806;2023-07-24T01:14:38;23.50;99.90
36444;DHT22;24692;45.642;13.806;2023-07-24T01:17:07;23.50;99.90
36444;DHT22;24692;45.642;13.806;2023-07-24T01:19:37;23.50;99.90
36444;DHT22;24692;45.642;13.806;2023-07-24T01:22:27;23.50;99.90
36444;DHT22;24692;45.642;13.806;2023-07-24T01:27:31;23.50;99.90
36444;DHT22;24692;45.642;13.806;2023-07-24T01:29:57;23.50;99.90
36444;DHT22;24692;45.642;13.806;2023-07-24T01:32:23;23.50;99.90
36444;DHT22;24692;45.642;13.806;2023-07-24T01:34:50;23.50;99.90
36444;DHT22;24692;45.642;13.806;2023-07-24T01:37:16;23.40;99.90
36444;DHT22;24692;45.642;13.806;2023-07-24T01:39:43;23.40;99.90
36444;DHT22;24692;45.642;13.806;2023-07-24T01:42:10;23.40;99.90
36444;DHT22;24692;45.642;13.806;2023-07-24T01:44:36;23.40;99.90
36444;DHT22;24692;45.642;13.806;2023-07-24T01:47:01;23.50;99.90
36444;DHT22;24692;45.642;13.806;2023-07-24T01:49:27;23.50;99.90
36444;DHT22;24692;45.642;13.806;2023-07-24T01:51:53;23.50;99.90
36444;DHT22;24692;45.642;13.806;2023-07-24T01:54:18;23.40;99.90
36444;DHT22;24692;45.642;13.806;2023-07-24T01:56:44;23.40;99.90
36444;DHT22;24692;45.642;13.806;2023-07-24T01:59:10;23.40;99.90
36444;DHT22;24692;45.642;13.806;2023-07-24T02:01:35;23.40;99.90
36444;DHT22;24692;45.642;13.806;2023-07-24T02:04:01;23.40;99.90
36444;DHT22;24692;45.642;13.806;2023-07-24T02:06:27;23.40;99.90
36444;DHT22;24692;45.642;13.806;2023-07-24T02:08:53;23.40;99.90
36444;DHT22;24692;45.642;13.806;2023-07-24T02:11:18;23.40;99.90
36444;DHT22;24692;45.642;13.806;2023-07-24T02:13:45;23.40;99.90
36444;DHT22;24692;45.642;13.806;2023-07-24T02:16:12;23.30;99.90
36444;DHT22;24692;45.642;13.806;2023-07-24T02:18:42;23.30;99.90
36444;DHT22;24692;45.642;13.806;2023-07-24T02:21:08;23.30;99.90
36444;DHT22;24692;45.642;13.806;2023-07-24T02:23:34;23.30;99.90
36444;DHT22;24692;45.642;13.806;2023-07-24T02:26:00;23.30;99.90
36444;DHT22;24692;45.642;13.806;2023-07-24T02:28:26;23.40;99.90
36444;DHT22;24692;45.642;13.806;2023-07-24T02:30:52;23.30;99.90
36444;DHT22;24692;45.642;13.806;2023-07-24T02:33:21;23.30;99.90
36444;DHT22;24692;45.642;13.806;2023-07-24T02:35:49;23.30;99.90
36444;DHT22;24692;45.642;13.806;2023-07-24T02:38:16;23.30;99.90
36444;DHT22;24692;45.642;13.806;2023-07-24T02:40:43;23.30;99.90
36444;DHT22;24692;45.642;13.806;2023-07-24T02:43:09;23.30;99.90
36444;DHT22;24692;45.642;13.806;2023-07-24T02:45:35;23.20;99.90
36444;DHT22;24692;45.642;13.806;2023-07-24T02:48:01;23.20;99.90
36444;DHT22;24692;45.642;13.806;2023-07-24T02:50:27;23.20;99.90
36444;DHT22;24692;45.642;13.806;2023-07-24T02:52:53;23.20;99.90
36444;DHT22;24692;45.642;13.806;2023-07-24T02:55:18;23.20;99.90
36444;DHT22;24692;45.642;13.806;2023-07-24T02:57:44;23.20;99.90
36444;DHT22;24692;45.642;13.806;2023-07-24T03:00:10;23.20;99.90
36444;DHT22;24692;45.642;13.806;2023-07-24T03:02:36;23.30;99.90
36444;DHT22;24692;45.642;13.806;2023-07-24T03:05:02;23.20;99.90
36444;DHT22;24692;45.642;13.806;2023-07-24T03:07:28;23.20;99.90
36444;DHT22;24692;45.642;13.806;2023-07-24T03:09:54;23.20;99.90
36444;DHT22;24692;45.642;13.806;2023-07-24T03:12:19;23.20;99.90
36444;DHT22;24692;45.642;13.806;2023-07-24T03:14:45;23.20;99.90
36444;DHT22;24692;45.642;13.806;2023-07-24T03:17:10;23.20;99.90
36444;DHT22;24692;45.642;13.806;2023-07-24T03:19:36;23.20;99.90
36444;DHT22;24692;45.642;13.806;2023-07-24T03:22:02;23.20;99.90
36444;DHT22;24692;45.642;13.806;2023-07-24T03:24:28;23.20;99.90
36444;DHT22;24692;45.642;13.806;2023-07-24T03:26:53;23.20;99.90
36444;DHT22;24692;45.642;13.806;2023-07-24T03:29:19;23.20;99.90
36444;DHT22;24692;45.642;13.806;2023-07-24T03:31:45;23.20;99.90
36444;DHT22;24692;45.642;13.806;2023-07-24T03:34:10;23.20;99.90
36444;DHT22;24692;45.642;13.806;2023-07-24T03:36:36;23.20;99.90
36444;DHT22;24692;45.642;13.806;2023-07-24T03:39:02;23.20;99.90
36444;DHT22;24692;45.642;13.806;2023-07-24T03:41:28;23.20;99.90
36444;DHT22;24692;45.642;13.806;2023-07-24T03:43:53;23.20;99.90
36444;DHT22;24692;45.642;13.806;2023-07-24T03:46:19;23.20;99.90
36444;DHT22;24692;45.642;13.806;2023-07-24T03:48:45;23.20;99.90
36444;DHT22;24692;45.642;13.806;2023-07-24T03:51:10;23.20;99.90
36444;DHT22;24692;45.642;13.806;2023-07-24T03:53:36;23.10;99.90
36444;DHT22;24692;45.642;13.806;2023-07-24T03:56:02;23.20;99.90
36444;DHT22;24692;45.642;13.806;2023-07-24T03:58:27;23.20;99.90
36444;DHT22;24692;45.642;13.806;2023-07-24T04:00:53;23.20;99.90
36444;DHT22;24692;45.642;13.806;2023-07-24T04:03:18;23.10;99.90
36444;DHT22;24692;45.642;13.806;2023-07-24T04:05:44;23.10;99.90
36444;DHT22;24692;45.642;13.806;2023-07-24T04:08:11;23.20;99.90
36444;DHT22;24692;45.642;13.806;2023-07-24T04:10:36;23.20;99.90
36444;DHT22;24692;45.642;13.806;2023-07-24T04:13:02;23.20;99.90
36444;DHT22;24692;45.642;13.806;2023-07-24T04:15:28;23.20;99.90
36444;DHT22;24692;45.642;13.806;2023-07-24T04:17:53;23.20;99.90
36444;DHT22;24692;45.642;13.806;2023-07-24T04:20:19;23.30;99.90
36444;DHT22;24692;45.642;13.806;2023-07-24T04:22:45;23.30;99.90
36444;DHT22;24692;45.642;13.806;2023-07-24T04:25:10;23.30;99.90
36444;DHT22;24692;45.642;13.806;2023-07-24T04:27:36;23.30;99.90
36444;DHT22;24692;45.642;13.806;2023-07-24T04:30:02;23.40;99.90
36444;DHT22;24692;45.642;13.806;2023-07-24T04:32:27;23.40;99.90
36444;DHT22;24692;45.642;13.806;2023-07-24T04:34:53;23.40;99.90
36444;DHT22;24692;45.642;13.806;2023-07-24T04:37:19;23.40;99.90
36444;DHT22;24692;45.642;13.806;2023-07-24T04:39:44;23.50;99.90
36444;DHT22;24692;45.642;13.806;2023-07-24T04:42:10;23.50;99.90
36444;DHT22;24692;45.642;13.806;2023-07-24T04:44:36;23.50;99.90
36444;DHT22;24692;45.642;13.806;2023-07-24T04:47:01;23.50;99.90
36444;DHT22;24692;45.642;13.806;2023-07-24T04:49:31;23.50;99.90
36444;DHT22;24692;45.642;13.806;2023-07-24T04:51:58;23.60;99.90
36444;DHT22;24692;45.642;13.806;2023-07-24T04:54:24;23.60;99.90
36444;DHT22;24692;45.642;13.806;2023-07-24T04:56:50;23.70;99.90
36444;DHT22;24692;45.642;13.806;2023-07-24T04:59:16;23.80;99.90
36444;DHT22;24692;45.642;13.806;2023-07-24T05:01:41;23.90;99.90
36444;DHT22;24692;45.642;13.806;2023-07-24T05:04:08;24.00;99.90
36444;DHT22;24692;45.642;13.806;2023-07-24T05:06:34;24.00;99.90
36444;DHT22;24692;45.642;13.806;2023-07-24T05:09:01;24.10;99.90
36444;DHT22;24692;45.642;13.806;2023-07-24T05:11:27;24.20;99.90
36444;DHT22;24692;45.642;13.806;2023-07-24T05:13:53;24.30;99.90
36444;DHT22;24692;45.642;13.806;2023-07-24T05:16:18;24.40;99.90
36444;DHT22;24692;45.642;13.806;2023-07-24T05:18:44;24.50;99.90
36444;DHT22;24692;45.642;13.806;2023-07-24T05:21:09;24.70;99.90
36444;DHT22;24692;45.642;13.806;2023-07-24T05:23:35;24.80;99.90
36444;DHT22;24692;45.642;13.806;2023-07-24T05:26:02;25.00;99.90
36444;DHT22;24692;45.642;13.806;2023-07-24T05:28:30;25.10;99.90
36444;DHT22;24692;45.642;13.806;2023-07-24T05:31:03;25.30;99.90
36444;DHT22;24692;45.642;13.806;2023-07-24T05:33:30;25.40;99.90
36444;DHT22;24692;45.642;13.806;2023-07-24T05:35:59;25.50;99.90
36444;DHT22;24692;45.642;13.806;2023-07-24T05:38:25;25.60;99.90
36444;DHT22;24692;45.642;13.806;2023-07-24T05:41:02;25.70;99.90
36444;DHT22;24692;45.642;13.806;2023-07-24T05:43:28;25.90;99.90
36444;DHT22;24692;45.642;13.806;2023-07-24T05:45:56;25.90;99.90
36444;DHT22;24692;45.642;13.806;2023-07-24T05:48:22;26.00;99.90
36444;DHT22;24692;45.642;13.806;2023-07-24T05:50:48;26.10;99.90
36444;DHT22;24692;45.642;13.806;2023-07-24T05:53:14;26.20;99.90
36444;DHT22;24692;45.642;13.806;2023-07-24T05:55:40;26.30;99.90
36444;DHT22;24692;45.642;13.806;2023-07-24T05:58:06;26.50;99.90
36444;DHT22;24692;45.642;13.806;2023-07-24T06:00:31;26.60;99.90
36444;DHT22;24692;45.642;13.806;2023-07-24T06:02:57;26.70;99.90
36444;DHT22;24692;45.642;13.806;2023-07-24T06:05:23;26.90;99.90
36444;DHT22;24692;45.642;13.806;2023-07-24T06:07:48;27.00;99.90
36444;DHT22;24692;45.642;13.806;2023-07-24T06:10:14;27.20;99.90
36444;DHT22;24692;45.642;13.806;2023-07-24T06:12:40;27.30;99.90
36444;DHT22;24692;45.642;13.806;2023-07-24T06:15:06;27.40;99.90
36444;DHT22;24692;45.642;13.806;2023-07-24T06:17:32;27.60;99.90
36444;DHT22;24692;45.642;13.806;2023-07-24T06:19:58;27.90;99.90
36444;DHT22;24692;45.642;13.806;2023-07-24T06:22:24;28.10;99.90
36444;DHT22;24692;45.642;13.806;2023-07-24T06:24:50;28.30;99.90
36444;DHT22;24692;45.642;13.806;2023-07-24T06:27:16;28.50;99.90
36444;DHT22;24692;45.642;13.806;2023-07-24T06:29:41;28.60;99.90
36444;DHT22;24692;45.642;13.806;2023-07-24T06:32:07;28.80;99.90
36444;DHT22;24692;45.642;13.806;2023-07-24T06:34:34;29.00;99.90
36444;DHT22;24692;45.642;13.806;2023-07-24T06:36:59;29.10;99.90
36444;DHT22;24692;45.642;13.806;2023-07-24T06:39:25;29.10;99.90
36444;DHT22;24692;45.642;13.806;2023-07-24T06:41:52;29.00;99.90
36444;DHT22;24692;45.642;13.806;2023-07-24T06:44:18;28.80;99.90
36444;DHT22;24692;45.642;13.806;2023-07-24T06:46:43;28.70;99.90
36444;DHT22;24692;45.642;13.806;2023-07-24T06:49:09;28.60;99.90
36444;DHT22;24692;45.642;13.806;2023-07-24T06:51:36;28.50;99.90
36444;DHT22;24692;45.642;13.806;2023-07-24T06:54:04;28.50;99.90
36444;DHT22;24692;45.642;13.806;2023-07-24T06:56:30;28.60;99.90
36444;DHT22;24692;45.642;13.806;2023-07-24T06:58:55;28.60;99.90
36444;DHT22;24692;45.642;13.806;2023-07-24T07:01:21;28.50;99.90
36444;DHT22;24692;45.642;13.806;2023-07-24T07:03:46;28.50;99.90
36444;DHT22;24692;45.642;13.806;2023-07-24T07:06:12;28.40;99.90
36444;DHT22;24692;45.642;13.806;2023-07-24T07:08:38;28.50;99.90
36444;DHT22;24692;45.642;13.806;2023-07-24T07:11:04;28.50;99.90
36444;DHT22;24692;45.642;13.806;2023-07-24T07:13:29;28.50;99.90
36444;DHT22;24692;45.642;13.806;2023-07-24T07:15:55;28.60;99.90
36444;DHT22;24692;45.642;13.806;2023-07-24T07:18:21;28.80;99.90
36444;DHT22;24692;45.642;13.806;2023-07-24T07:20:51;28.90;99.90
36444;DHT22;24692;45.642;13.806;2023-07-24T07:23:17;29.10;99.90
36444;DHT22;24692;45.642;13.806;2023-07-24T07:25:42;29.60;99.90
36444;DHT22;24692;45.642;13.806;2023-07-24T07:28:11;29.80;99.90
36444;DHT22;24692;45.642;13.806;2023-07-24T07:30:36;29.90;99.90
36444;DHT22;24692;45.642;13.806;2023-07-24T07:33:02;29.80;99.90
36444;DHT22;24692;45.642;13.806;2023-07-24T07:35:28;29.60;99.90
36444;DHT22;24692;45.642;13.806;2023-07-24T07:37:54;29.70;99.90
36444;DHT22;24692;45.642;13.806;2023-07-24T07:40:20;29.70;99.90
36444;DHT22;24692;45.642;13.806;2023-07-24T07:42:46;29.90;99.90
36444;DHT22;24692;45.642;13.806;2023-07-24T07:45:11;30.00;99.90
36444;DHT22;24692;45.642;13.806;2023-07-24T07:47:37;30.20;99.90
36444;DHT22;24692;45.642;13.806;2023-07-24T07:50:03;30.40;99.90
36444;DHT22;24692;45.642;13.806;2023-07-24T07:52:29;30.50;99.90
36444;DHT22;24692;45.642;13.806;2023-07-24T07:54:54;30.60;99.90
36444;DHT22;24692;45.642;13.806;2023-07-24T07:57:20;30.30;99.90
36444;DHT22;24692;45.642;13.806;2023-07-24T07:59:45;30.20;99.90
36444;DHT22;24692;45.642;13.806;2023-07-24T08:02:11;30.20;99.90
36444;DHT22;24692;45.642;13.806;2023-07-24T08:04:37;30.10;99.90
36444;DHT22;24692;45.642;13.806;2023-07-24T08:07:03;30.20;99.90
36444;DHT22;24692;45.642;13.806;2023-07-24T08:09:28;30.20;99.90
36444;DHT22;24692;45.642;13.806;2023-07-24T08:11:54;30.20;99.90
36444;DHT22;24692;45.642;13.806;2023-07-24T08:14:20;30.30;99.90
36444;DHT22;24692;45.642;13.806;2023-07-24T08:16:49;30.90;99.90
36444;DHT22;24692;45.642;13.806;2023-07-24T08:19:15;31.50;99.90
36444;DHT22;24692;45.642;13.806;2023-07-24T08:21:41;32.40;99.90
36444;DHT22;24692;45.642;13.806;2023-07-24T08:24:07;33.20;99.90
36444;DHT22;24692;45.642;13.806;2023-07-24T08:26:32;34.10;99.90
36444;DHT22;24692;45.642;13.806;2023-07-24T08:28:58;34.30;99.90
36444;DHT22;24692;45.642;13.806;2023-07-24T08:31:24;33.90;99.90
36444;DHT22;24692;45.642;13.806;2023-07-24T08:33:49;33.30;99.90
36444;DHT22;24692;45.642;13.806;2023-07-24T08:36:15;32.70;99.90
36444;DHT22;24692;45.642;13.806;2023-07-24T08:38:41;32.60;99.90
36444;DHT22;24692;45.642;13.806;2023-07-24T08:41:12;33.60;99.90
36444;DHT22;24692;45.642;13.806;2023-07-24T08:43:40;34.90;99.90
36444;DHT22;24692;45.642;13.806;2023-07-24T08:46:07;35.50;99.90
36444;DHT22;24692;45.642;13.806;2023-07-24T08:51:03;35.90;99.90
36444;DHT22;24692;45.642;13.806;2023-07-24T08:53:30;36.40;99.90
36444;DHT22;24692;45.642;13.806;2023-07-24T08:55:57;36.20;99.90
36444;DHT22;24692;45.642;13.806;2023-07-24T08:58:23;35.80;99.90
36444;DHT22;24692;45.642;13.806;2023-07-24T09:00:48;35.10;99.90
36444;DHT22;24692;45.642;13.806;2023-07-24T09:03:17;35.20;99.90
36444;DHT22;24692;45.642;13.806;2023-07-24T09:05:43;35.70;99.90
36444;DHT22;24692;45.642;13.806;2023-07-24T09:08:09;36.60;99.90
36444;DHT22;24692;45.642;13.806;2023-07-24T09:10:35;37.20;99.90
36444;DHT22;24692;45.642;13.806;2023-07-24T09:13:00;37.50;99.90
36444;DHT22;24692;45.642;13.806;2023-07-24T09:15:38;37.30;99.90
36444;DHT22;24692;45.642;13.806;2023-07-24T09:18:04;37.40;99.90
36444;DHT22;24692;45.642;13.806;2023-07-24T09:20:38;36.90;99.90
36444;DHT22;24692;45.642;13.806;2023-07-24T09:23:05;36.40;99.90
36444;DHT22;24692;45.642;13.806;2023-07-24T09:25:31;35.60;99.90
36444;DHT22;24692;45.642;13.806;2023-07-24T09:28:00;34.30;99.90
36444;DHT22;24692;45.642;13.806;2023-07-24T09:30:26;34.90;99.90
36444;DHT22;24692;45.642;13.806;2023-07-24T09:32:53;35.30;99.90
36444;DHT22;24692;45.642;13.806;2023-07-24T09:35:19;36.20;99.90
36444;DHT22;24692;45.642;13.806;2023-07-24T09:37:46;36.90;99.90
36444;DHT22;24692;45.642;13.806;2023-07-24T09:40:14;37.50;99.90
36444;DHT22;24692;45.642;13.806;2023-07-24T09:42:40;36.80;99.90
36444;DHT22;24692;45.642;13.806;2023-07-24T09:45:06;36.60;99.90
36444;DHT22;24692;45.642;13.806;2023-07-24T09:47:34;36.90;99.90
36444;DHT22;24692;45.642;13.806;2023-07-24T09:50:03;37.20;99.90
36444;DHT22;24692;45.642;13.806;2023-07-24T09:52:29;36.70;99.90
36444;DHT22;24692;45.642;13.806;2023-07-24T09:55:06;35.90;99.90
36444;DHT22;24692;45.642;13.806;2023-07-24T09:57:32;36.30;99.90
36444;DHT22;24692;45.642;13.806;2023-07-24T09:59:59;36.40;99.90
36444;DHT22;24692;45.642;13.806;2023-07-24T10:02:26;35.50;99.90
36444;DHT22;24692;45.642;13.806;2023-07-24T10:04:53;34.20;99.90
36444;DHT22;24692;45.642;13.806;2023-07-24T10:07:19;33.50;99.90
36444;DHT22;24692;45.642;13.806;2023-07-24T10:09:48;32.90;99.90
36444;DHT22;24692;45.642;13.806;2023-07-24T10:12:15;32.50;99.90
36444;DHT22;24692;45.642;13.806;2023-07-24T10:14:45;32.60;99.90
36444;DHT22;24692;45.642;13.806;2023-07-24T10:17:11;32.70;99.90
36444;DHT22;24692;45.642;13.806;2023-07-24T10:19:41;32.60;99.90
36444;DHT22;24692;45.642;13.806;2023-07-24T10:22:19;32.50;99.90
36444;DHT22;24692;45.642;13.806;2023-07-24T10:24:46;32.00;99.90
36444;DHT22;24692;45.642;13.806;2023-07-24T10:27:12;31.60;99.90
36444;DHT22;24692;45.642;13.806;2023-07-24T10:29:38;31.50;99.90
36444;DHT22;24692;45.642;13.806;2023-07-24T10:32:17;31.10;99.90
36444;DHT22;24692;45.642;13.806;2023-07-24T10:34:43;31.00;99.90
36444;DHT22;24692;45.642;13.806;2023-07-24T10:37:09;30.90;99.90
36444;DHT22;24692;45.642;13.806;2023-07-24T10:39:39;30.80;99.90
36444;DHT22;24692;45.642;13.806;2023-07-24T10:42:09;30.70;99.90
36444;DHT22;24692;45.642;13.806;2023-07-24T10:44:35;30.90;99.90
36444;DHT22;24692;45.642;13.806;2023-07-24T10:47:02;30.80;99.90
36444;DHT22;24692;45.642;13.806;2023-07-24T10:49:27;30.80;99.90
36444;DHT22;24692;45.642;13.806;2023-07-24T10:51:57;30.70;99.90
36444;DHT22;24692;45.642;13.806;2023-07-24T10:54:23;30.40;99.90
36444;DHT22;24692;45.642;13.806;2023-07-24T10:56:49;30.40;99.90
36444;DHT22;24692;45.642;13.806;2023-07-24T10:59:14;30.60;99.90
36444;DHT22;24692;45.642;13.806;2023-07-24T11:01:40;30.80;99.90
36444;DHT22;24692;45.642;13.806;2023-07-24T11:04:06;31.10;99.90
36444;DHT22;24692;45.642;13.806;2023-07-24T11:06:32;31.20;99.90
36444;DHT22;24692;45.642;13.806;2023-07-24T11:08:59;31.00;99.90
36444;DHT22;24692;45.642;13.806;2023-07-24T11:11:33;31.20;99.90
36444;DHT22;24692;45.642;13.806;2023-07-24T11:14:00;31.20;99.90
36444;DHT22;24692;45.642;13.806;2023-07-24T11:16:27;31.00;99.90
36444;DHT22;24692;45.642;13.806;2023-07-24T11:18:55;30.70;99.90
36444;DHT22;24692;45.642;13.806;2023-07-24T11:21:23;30.60;99.90
36444;DHT22;24692;45.642;13.806;2023-07-24T11:23:55;30.50;99.90
36444;DHT22;24692;45.642;13.806;2023-07-24T11:26:22;30.10;99.90
36444;DHT22;24692;45.642;13.806;2023-07-24T11:28:50;30.10;99.90
36444;DHT22;24692;45.642;13.806;2023-07-24T11:31:16;30.30;99.90
36444;DHT22;24692;45.642;13.806;2023-07-24T11:33:44;31.00;99.90
36444;DHT22;24692;45.642;13.806;2023-07-24T11:36:11;31.60;99.90
36444;DHT22;24692;45.642;13.806;2023-07-24T11:38:37;31.80;99.90
36444;DHT22;24692;45.642;13.806;2023-07-24T11:41:04;31.10;99.90
36444;DHT22;24692;45.642;13.806;2023-07-24T11:43:30;30.70;99.90
36444;DHT22;24692;45.642;13.806;2023-07-24T11:45:56;30.50;99.90
36444;DHT22;24692;45.642;13.806;2023-07-24T11:48:23;30.20;99.90
36444;DHT22;24692;45.642;13.806;2023-07-24T11:50:55;30.40;99.90
36444;DHT22;24692;45.642;13.806;2023-07-24T11:53:28;30.60;99.90
36444;DHT22;24692;45.642;13.806;2023-07-24T11:55:58;30.70;99.90
36444;DHT22;24692;45.642;13.806;2023-07-24T11:58:31;30.90;99.90
36444;DHT22;24692;45.642;13.806;2023-07-24T12:00:56;31.10;99.90
36444;DHT22;24692;45.642;13.806;2023-07-24T12:03:25;31.10;99.90
36444;DHT22;24692;45.642;13.806;2023-07-24T12:05:51;31.20;99.90
36444;DHT22;24692;45.642;13.806;2023-07-24T12:08:40;31.00;99.90
36444;DHT22;24692;45.642;13.806;2023-07-24T12:11:04;31.10;99.90
36444;DHT22;24692;45.642;13.806;2023-07-24T12:13:40;31.40;99.90
36444;DHT22;24692;45.642;13.806;2023-07-24T12:16:06;31.50;99.90
36444;DHT22;24692;45.642;13.806;2023-07-24T12:18:32;31.70;99.90
36444;DHT22;24692;45.642;13.806;2023-07-24T12:20:58;32.10;99.90
36444;DHT22;24692;45.642;13.806;2023-07-24T12:23:23;32.20;99.90
36444;DHT22;24692;45.642;13.806;2023-07-24T12:25:49;32.30;99.90
36444;DHT22;24692;45.642;13.806;2023-07-24T12:28:14;32.30;99.90
36444;DHT22;24692;45.642;13.806;2023-07-24T12:30:40;32.40;99.90
36444;DHT22;24692;45.642;13.806;2023-07-24T12:33:06;32.70;99.90
36444;DHT22;24692;45.642;13.806;2023-07-24T12:35:31;32.70;99.90
36444;DHT22;24692;45.642;13.806;2023-07-24T12:37:57;32.70;99.90
36444;DHT22;24692;45.642;13.806;2023-07-24T12:40:23;32.50;99.90
36444;DHT22;24692;45.642;13.806;2023-07-24T12:42:48;32.50;99.90
36444;DHT22;24692;45.642;13.806;2023-07-24T12:45:14;32.80;99.90
36444;DHT22;24692;45.642;13.806;2023-07-24T12:47:40;32.90;99.90
36444;DHT22;24692;45.642;13.806;2023-07-24T12:50:05;33.10;99.90
36444;DHT22;24692;45.642;13.806;2023-07-24T12:52:31;33.60;99.90
36444;DHT22;24692;45.642;13.806;2023-07-24T12:54:57;34.10;99.90
36444;DHT22;24692;45.642;13.806;2023-07-24T12:57:22;34.40;99.90
36444;DHT22;24692;45.642;13.806;2023-07-24T12:59:48;33.80;99.90
36444;DHT22;24692;45.642;13.806;2023-07-24T13:02:14;33.50;99.90
36444;DHT22;24692;45.642;13.806;2023-07-24T13:04:40;33.90;99.90
36444;DHT22;24692;45.642;13.806;2023-07-24T13:07:05;34.60;99.90
36444;DHT22;24692;45.642;13.806;2023-07-24T13:09:31;35.20;99.90
36444;DHT22;24692;45.642;13.806;2023-07-24T13:11:57;35.50;99.90
36444;DHT22;24692;45.642;13.806;2023-07-24T13:14:22;35.20;99.90
36444;DHT22;24692;45.642;13.806;2023-07-24T13:16:49;34.90;99.90
36444;DHT22;24692;45.642;13.806;2023-07-24T13:19:15;34.70;99.90
36444;DHT22;24692;45.642;13.806;2023-07-24T13:21:41;34.40;99.90
36444;DHT22;24692;45.642;13.806;2023-07-24T13:24:08;34.30;99.90
36444;DHT22;24692;45.642;13.806;2023-07-24T13:26:34;34.20;99.90
36444;DHT22;24692;45.642;13.806;2023-07-24T13:29:00;33.80;99.90
36444;DHT22;24692;45.642;13.806;2023-07-24T13:31:25;33.50;99.90
36444;DHT22;24692;45.642;13.806;2023-07-24T13:33:53;33.30;99.90
36444;DHT22;24692;45.642;13.806;2023-07-24T13:36:19;33.20;99.90
36444;DHT22;24692;45.642;13.806;2023-07-24T13:38:44;33.30;99.90
36444;DHT22;24692;45.642;13.806;2023-07-24T13:41:10;32.90;99.90
36444;DHT22;24692;45.642;13.806;2023-07-24T13:43:36;33.30;99.90
36444;DHT22;24692;45.642;13.806;2023-07-24T13:46:02;33.60;99.90
36444;DHT22;24692;45.642;13.806;2023-07-24T13:48:32;33.50;99.90
36444;DHT22;24692;45.642;13.806;2023-07-24T13:50:58;33.40;99.90
36444;DHT22;24692;45.642;13.806;2023-07-24T13:53:24;33.60;99.90
36444;DHT22;24692;45.642;13.806;2023-07-24T13:55:50;34.10;99.90
36444;DHT22;24692;45.642;13.806;2023-07-24T13:58:16;34.90;99.90
36444;DHT22;24692;45.642;13.806;2023-07-24T14:00:42;35.40;99.90
36444;DHT22;24692;45.642;13.806;2023-07-24T14:03:07;35.90;99.90
36444;DHT22;24692;45.642;13.806;2023-07-24T14:05:34;36.00;99.90
36444;DHT22;24692;45.642;13.806;2023-07-24T14:08:02;36.10;99.90
36444;DHT22;24692;45.642;13.806;2023-07-24T14:10:28;35.90;99.90
36444;DHT22;24692;45.642;13.806;2023-07-24T14:12:53;35.40;99.90
36444;DHT22;24692;45.642;13.806;2023-07-24T14:15:19;35.30;99.90
36444;DHT22;24692;45.642;13.806;2023-07-24T14:17:45;35.10;99.90
36444;DHT22;24692;45.642;13.806;2023-07-24T14:20:11;34.40;99.90
36444;DHT22;24692;45.642;13.806;2023-07-24T14:22:36;34.00;99.90
36444;DHT22;24692;45.642;13.806;2023-07-24T14:25:02;34.00;99.90
36444;DHT22;24692;45.642;13.806;2023-07-24T14:27:28;34.20;99.90
36444;DHT22;24692;45.642;13.806;2023-07-24T14:29:54;34.20;99.90
36444;DHT22;24692;45.642;13.806;2023-07-24T14:32:19;34.20;99.90
36444;DHT22;24692;45.642;13.806;2023-07-24T14:34:50;33.70;99.90
36444;DHT22;24692;45.642;13.806;2023-07-24T14:37:16;33.70;99.90
36444;DHT22;24692;45.642;13.806;2023-07-24T14:39:42;33.60;99.90
36444;DHT22;24692;45.642;13.806;2023-07-24T14:42:10;33.50;99.90
36444;DHT22;24692;45.642;13.806;2023-07-24T14:44:35;33.30;99.90
36444;DHT22;24692;45.642;13.806;2023-07-24T14:47:01;33.50;99.90
36444;DHT22;24692;45.642;13.806;2023-07-24T14:49:26;33.30;99.90
36444;DHT22;24692;45.642;13.806;2023-07-24T14:51:52;33.10;99.90
36444;DHT22;24692;45.642;13.806;2023-07-24T14:54:18;32.80;99.90
36444;DHT22;24692;45.642;13.806;2023-07-24T14:56:43;32.60;99.90
36444;DHT22;24692;45.642;13.806;2023-07-24T14:59:09;32.50;99.90
36444;DHT22;24692;45.642;13.806;2023-07-24T15:01:35;32.40;99.90
36444;DHT22;24692;45.642;13.806;2023-07-24T15:04:01;32.10;99.90
36444;DHT22;24692;45.642;13.806;2023-07-24T15:06:26;32.10;99.90
36444;DHT22;24692;45.642;13.806;2023-07-24T15:08:52;32.10;99.90
36444;DHT22;24692;45.642;13.806;2023-07-24T15:11:24;32.20;99.90
36444;DHT22;24692;45.642;13.806;2023-07-24T15:13:51;32.20;99.90
36444;DHT22;24692;45.642;13.806;2023-07-24T15:16:16;32.10;99.90